aviador You're here:

KNSE Decoded Metar

MILTON in FL, USA
Report Time2018-01-18 10:56:00
UTC Time2018-01-18 11:49:03
Flight Rules vfr VFR
Wind350° at 04 kt
W.Decomp.*RWY 32: 3.4 kt HW 2.1 kt RCW
RWY 05: 2.1 kt HW 3.4 kt LCW
W.Rank350° ranks 1
Current wind is below 350° avg. (5.7)
Visibility9999 m
Phenomena:N/A
Clouds:N/A
Expected CloudBase > 1,600 ft AGL from Temp-Dew spread
CeilingNone
Temp-7°C (ISA -22)
Dew Point-11°C (73% RH)
AAT-11.6°C
QNH1033 hPa
Density Alt-3,127 ft
Elevation200 ft
Report Wrong Elevation
Raw Report
KNSE 181056Z AUTO 35004KT 10SM CLR M07/M11 A3049 RMK AO2 SLP318
T10721106 $=

Extra information for KNSE:More info

Metar Taf Metar & Taf Last 4 Metars F.Rules Stats Wind Profile Meteogram Temp Stats Airport Information Weather charts Add Link Nearby VenuesMetar ALERT Operation Metar Decoded Social comments

AIRNAV info for KNSE